Terminal Aerodrome Forecast
Issued by NWS

Home | Current Version | Previous Version | Text Only | Print | Product List | Glossary Off
Versions: 1 2 3 4 5 6 7 8 9 10 11 12

000
FTUS43 KIWX 282300
TAFSBN
TAF
KSBN 282338Z 2900/2924 15013KT P6SM BKN250
     FM290300 16015G22KT P6SM OVC200 WS020/19050KT
     FM290800 18018G25KT 6SM -SHRA BR OVC070 WS020/20050KT
     FM291300 22012KT 4SM -SHRA OVC008
     FM291700 31018G25KT 4SM -RASN BKN008 OVC015=

USA.gov is the U.S. government's official web portal to all federal, state and local government web resources and services.